sensor_id;sensor_type;location;lat;lon;timestamp;temperature;humidity
2260;DHT22;333;48.800;9.530;2023-04-15T00:00:58;4.40;99.60
2260;DHT22;333;48.800;9.530;2023-04-15T00:03:25;4.40;99.60
2260;DHT22;333;48.800;9.530;2023-04-15T00:05:54;4.30;99.60
2260;DHT22;333;48.800;9.530;2023-04-15T00:08:21;4.40;99.60
2260;DHT22;333;48.800;9.530;2023-04-15T00:10:48;4.40;99.60
2260;DHT22;333;48.800;9.530;2023-04-15T00:13:15;4.50;99.60
2260;DHT22;333;48.800;9.530;2023-04-15T00:15:42;4.40;99.60
2260;DHT22;333;48.800;9.530;2023-04-15T00:18:11;4.30;99.60
2260;DHT22;333;48.800;9.530;2023-04-15T00:20:38;4.10;99.60
2260;DHT22;333;48.800;9.530;2023-04-15T00:23:07;4.10;99.60
2260;DHT22;333;48.800;9.530;2023-04-15T00:25:34;4.20;99.60
2260;DHT22;333;48.800;9.530;2023-04-15T00:28:01;4.20;99.60
2260;DHT22;333;48.800;9.530;2023-04-15T00:30:28;4.20;99.60
2260;DHT22;333;48.800;9.530;2023-04-15T00:32:56;4.20;99.60
2260;DHT22;333;48.800;9.530;2023-04-15T00:35:22;4.10;99.60
2260;DHT22;333;48.800;9.530;2023-04-15T00:37:50;4.10;99.60
2260;DHT22;333;48.800;9.530;2023-04-15T00:40:20;4.10;99.60
2260;DHT22;333;48.800;9.530;2023-04-15T00:42:49;4.00;99.60
2260;DHT22;333;48.800;9.530;2023-04-15T00:45:16;4.00;99.60
2260;DHT22;333;48.800;9.530;2023-04-15T00:47:44;3.90;99.60
2260;DHT22;333;48.800;9.530;2023-04-15T00:50:11;3.90;99.60
2260;DHT22;333;48.800;9.530;2023-04-15T00:52:39;3.90;99.60
2260;DHT22;333;48.800;9.530;2023-04-15T00:55:07;3.90;99.60
2260;DHT22;333;48.800;9.530;2023-04-15T00:57:36;3.90;99.60
2260;DHT22;333;48.800;9.530;2023-04-15T01:00:05;4.00;99.60
2260;DHT22;333;48.800;9.530;2023-04-15T01:02:33;4.10;99.60
2260;DHT22;333;48.800;9.530;2023-04-15T01:05:01;4.00;99.60
2260;DHT22;333;48.800;9.530;2023-04-15T01:07:28;3.90;99.60
2260;DHT22;333;48.800;9.530;2023-04-15T01:09:55;4.00;99.60
2260;DHT22;333;48.800;9.530;2023-04-15T01:12:24;4.00;99.60
2260;DHT22;333;48.800;9.530;2023-04-15T01:14:54;4.10;99.60
2260;DHT22;333;48.800;9.530;2023-04-15T01:17:23;4.10;99.60
2260;DHT22;333;48.800;9.530;2023-04-15T01:19:50;3.90;99.60
2260;DHT22;333;48.800;9.530;2023-04-15T01:22:17;3.70;99.60
2260;DHT22;333;48.800;9.530;2023-04-15T01:24:54;3.70;99.60
2260;DHT22;333;48.800;9.530;2023-04-15T01:27:26;3.80;99.60
2260;DHT22;333;48.800;9.530;2023-04-15T01:29:53;3.70;99.60
2260;DHT22;333;48.800;9.530;2023-04-15T01:32:20;3.50;99.60
2260;DHT22;333;48.800;9.530;2023-04-15T01:34:47;3.40;99.60
2260;DHT22;333;48.800;9.530;2023-04-15T01:37:14;3.40;99.60
2260;DHT22;333;48.800;9.530;2023-04-15T01:39:41;3.40;99.60
2260;DHT22;333;48.800;9.530;2023-04-15T01:42:09;3.40;99.60
2260;DHT22;333;48.800;9.530;2023-04-15T01:44:37;3.40;99.60
2260;DHT22;333;48.800;9.530;2023-04-15T01:47:04;3.50;99.60
2260;DHT22;333;48.800;9.530;2023-04-15T01:49:31;3.50;99.60
2260;DHT22;333;48.800;9.530;2023-04-15T01:51:58;3.50;99.60
2260;DHT22;333;48.800;9.530;2023-04-15T01:54:26;3.50;99.60
2260;DHT22;333;48.800;9.530;2023-04-15T01:56:53;3.30;99.60
2260;DHT22;333;48.800;9.530;2023-04-15T01:59:21;3.30;99.60
2260;DHT22;333;48.800;9.530;2023-04-15T02:01:49;3.30;99.60
2260;DHT22;333;48.800;9.530;2023-04-15T02:04:16;3.20;99.60
2260;DHT22;333;48.800;9.530;2023-04-15T02:06:44;3.20;99.60
2260;DHT22;333;48.800;9.530;2023-04-15T02:09:11;3.10;99.60
2260;DHT22;333;48.800;9.530;2023-04-15T02:11:38;3.20;99.60
2260;DHT22;333;48.800;9.530;2023-04-15T02:14:05;3.30;99.60
2260;DHT22;333;48.800;9.530;2023-04-15T02:16:32;3.20;99.60
2260;DHT22;333;48.800;9.530;2023-04-15T02:19:00;3.10;99.60
2260;DHT22;333;48.800;9.530;2023-04-15T02:21:28;2.90;99.60
2260;DHT22;333;48.800;9.530;2023-04-15T02:23:55;2.90;99.60
2260;DHT22;333;48.800;9.530;2023-04-15T02:26:22;2.90;99.60
2260;DHT22;333;48.800;9.530;2023-04-15T02:28:50;2.90;99.60
2260;DHT22;333;48.800;9.530;2023-04-15T02:31:17;2.80;99.60
2260;DHT22;333;48.800;9.530;2023-04-15T02:33:44;2.80;99.60
2260;DHT22;333;48.800;9.530;2023-04-15T02:36:12;2.70;99.60
2260;DHT22;333;48.800;9.530;2023-04-15T02:38:39;2.60;99.60
2260;DHT22;333;48.800;9.530;2023-04-15T02:41:08;2.50;99.60
2260;DHT22;333;48.800;9.530;2023-04-15T02:43:35;2.50;99.60
2260;DHT22;333;48.800;9.530;2023-04-15T02:46:06;2.60;99.60
2260;DHT22;333;48.800;9.530;2023-04-15T02:48:33;2.90;99.60
2260;DHT22;333;48.800;9.530;2023-04-15T02:51:15;2.90;99.60
2260;DHT22;333;48.800;9.530;2023-04-15T02:53:44;2.70;99.60
2260;DHT22;333;48.800;9.530;2023-04-15T02:56:11;2.60;99.60
2260;DHT22;333;48.800;9.530;2023-04-15T02:58:40;2.60;99.60
2260;DHT22;333;48.800;9.530;2023-04-15T03:01:07;2.60;99.60
2260;DHT22;333;48.800;9.530;2023-04-15T03:03:34;2.60;99.60
2260;DHT22;333;48.800;9.530;2023-04-15T03:06:01;2.70;99.60
2260;DHT22;333;48.800;9.530;2023-04-15T03:08:29;2.70;99.60
2260;DHT22;333;48.800;9.530;2023-04-15T03:10:57;2.80;99.60
2260;DHT22;333;48.800;9.530;2023-04-15T03:13:25;2.80;99.60
2260;DHT22;333;48.800;9.530;2023-04-15T03:15:52;2.70;99.60
2260;DHT22;333;48.800;9.530;2023-04-15T03:18:19;2.70;99.60
2260;DHT22;333;48.800;9.530;2023-04-15T03:20:46;2.70;99.60
2260;DHT22;333;48.800;9.530;2023-04-15T03:23:13;2.80;99.60
2260;DHT22;333;48.800;9.530;2023-04-15T03:25:43;2.80;99.60
2260;DHT22;333;48.800;9.530;2023-04-15T03:28:10;2.70;99.60
2260;DHT22;333;48.800;9.530;2023-04-15T03:30:37;2.70;99.60
2260;DHT22;333;48.800;9.530;2023-04-15T03:33:04;2.70;99.60
2260;DHT22;333;48.800;9.530;2023-04-15T03:35:31;2.80;99.60
2260;DHT22;333;48.800;9.530;2023-04-15T03:37:58;2.90;99.60
2260;DHT22;333;48.800;9.530;2023-04-15T03:40:25;3.00;99.60
2260;DHT22;333;48.800;9.530;2023-04-15T03:42:54;2.90;99.60
2260;DHT22;333;48.800;9.530;2023-04-15T03:45:21;2.70;99.60
2260;DHT22;333;48.800;9.530;2023-04-15T03:47:48;2.70;99.60
2260;DHT22;333;48.800;9.530;2023-04-15T03:50:15;2.70;99.60
2260;DHT22;333;48.800;9.530;2023-04-15T03:52:43;2.70;99.60
2260;DHT22;333;48.800;9.530;2023-04-15T03:55:11;2.70;99.60
2260;DHT22;333;48.800;9.530;2023-04-15T03:57:38;2.80;99.60
2260;DHT22;333;48.800;9.530;2023-04-15T04:00:07;2.70;99.60
2260;DHT22;333;48.800;9.530;2023-04-15T04:02:35;2.70;99.60
2260;DHT22;333;48.800;9.530;2023-04-15T04:05:02;2.60;99.60
2260;DHT22;333;48.800;9.530;2023-04-15T04:07:29;2.60;99.60
2260;DHT22;333;48.800;9.530;2023-04-15T04:09:56;2.50;99.60
2260;DHT22;333;48.800;9.530;2023-04-15T04:12:23;2.50;99.60
2260;DHT22;333;48.800;9.530;2023-04-15T04:14:50;2.40;99.60
2260;DHT22;333;48.800;9.530;2023-04-15T04:17:19;2.40;99.60
2260;DHT22;333;48.800;9.530;2023-04-15T04:19:46;2.40;99.60
2260;DHT22;333;48.800;9.530;2023-04-15T04:22:13;2.30;99.60
2260;DHT22;333;48.800;9.530;2023-04-15T04:24:40;2.30;99.60
2260;DHT22;333;48.800;9.530;2023-04-15T04:27:07;2.20;99.60
2260;DHT22;333;48.800;9.530;2023-04-15T04:29:34;2.10;99.60
2260;DHT22;333;48.800;9.530;2023-04-15T04:32:01;2.10;99.60
2260;DHT22;333;48.800;9.530;2023-04-15T04:34:29;2.10;99.60
2260;DHT22;333;48.800;9.530;2023-04-15T04:36:57;2.20;99.60
2260;DHT22;333;48.800;9.530;2023-04-15T04:39:24;2.40;99.60
2260;DHT22;333;48.800;9.530;2023-04-15T04:41:51;2.20;99.60
2260;DHT22;333;48.800;9.530;2023-04-15T04:44:18;2.20;99.60
2260;DHT22;333;48.800;9.530;2023-04-15T04:46:45;2.00;99.60
2260;DHT22;333;48.800;9.530;2023-04-15T04:49:12;2.00;99.60
2260;DHT22;333;48.800;9.530;2023-04-15T04:51:40;2.20;99.60
2260;DHT22;333;48.800;9.530;2023-04-15T04:54:07;2.10;99.60
2260;DHT22;333;48.800;9.530;2023-04-15T04:56:34;2.00;99.60
2260;DHT22;333;48.800;9.530;2023-04-15T04:59:03;2.00;99.60
2260;DHT22;333;48.800;9.530;2023-04-15T05:01:30;2.00;99.60
2260;DHT22;333;48.800;9.530;2023-04-15T05:03:57;2.00;99.60
2260;DHT22;333;48.800;9.530;2023-04-15T05:06:24;2.00;99.60
2260;DHT22;333;48.800;9.530;2023-04-15T05:08:52;2.10;99.60
2260;DHT22;333;48.800;9.530;2023-04-15T05:11:19;2.30;99.60
2260;DHT22;333;48.800;9.530;2023-04-15T05:13:46;2.20;99.60
2260;DHT22;333;48.800;9.530;2023-04-15T05:16:13;2.20;99.60
2260;DHT22;333;48.800;9.530;2023-04-15T05:18:41;2.20;99.60
2260;DHT22;333;48.800;9.530;2023-04-15T05:21:08;2.30;99.60
2260;DHT22;333;48.800;9.530;2023-04-15T05:23:35;2.40;99.60
2260;DHT22;333;48.800;9.530;2023-04-15T05:26:05;2.50;99.60
2260;DHT22;333;48.800;9.530;2023-04-15T05:28:37;2.40;99.60
2260;DHT22;333;48.800;9.530;2023-04-15T05:31:04;2.40;99.60
2260;DHT22;333;48.800;9.530;2023-04-15T05:33:32;2.40;99.60
2260;DHT22;333;48.800;9.530;2023-04-15T05:35:59;2.60;99.60
2260;DHT22;333;48.800;9.530;2023-04-15T05:38:26;2.70;99.60
2260;DHT22;333;48.800;9.530;2023-04-15T05:40:53;2.70;99.60
2260;DHT22;333;48.800;9.530;2023-04-15T05:43:21;2.80;99.60
2260;DHT22;333;48.800;9.530;2023-04-15T05:45:48;2.70;99.60
2260;DHT22;333;48.800;9.530;2023-04-15T05:48:15;2.70;99.60
2260;DHT22;333;48.800;9.530;2023-04-15T05:50:43;2.70;99.60
2260;DHT22;333;48.800;9.530;2023-04-15T05:53:10;2.90;99.60
2260;DHT22;333;48.800;9.530;2023-04-15T05:55:37;3.00;99.60
2260;DHT22;333;48.800;9.530;2023-04-15T05:58:04;3.10;99.60
2260;DHT22;333;48.800;9.530;2023-04-15T06:00:32;3.40;99.60
2260;DHT22;333;48.800;9.530;2023-04-15T06:02:59;3.50;99.60
2260;DHT22;333;48.800;9.530;2023-04-15T06:05:26;3.50;99.60
2260;DHT22;333;48.800;9.530;2023-04-15T06:07:53;3.70;99.60
2260;DHT22;333;48.800;9.530;2023-04-15T06:10:21;3.80;99.60
2260;DHT22;333;48.800;9.530;2023-04-15T06:12:48;3.90;99.60
2260;DHT22;333;48.800;9.530;2023-04-15T06:15:15;3.90;99.60
2260;DHT22;333;48.800;9.530;2023-04-15T06:17:43;4.20;99.60
2260;DHT22;333;48.800;9.530;2023-04-15T06:20:11;4.30;99.60
2260;DHT22;333;48.800;9.530;2023-04-15T06:22:38;4.40;99.60
2260;DHT22;333;48.800;9.530;2023-04-15T06:25:06;4.60;99.60
2260;DHT22;333;48.800;9.530;2023-04-15T06:27:34;4.80;99.60
2260;DHT22;333;48.800;9.530;2023-04-15T06:30:01;4.90;99.60
2260;DHT22;333;48.800;9.530;2023-04-15T06:32:28;5.10;99.60
2260;DHT22;333;48.800;9.530;2023-04-15T06:34:56;5.10;99.60
2260;DHT22;333;48.800;9.530;2023-04-15T06:37:25;5.30;99.60
2260;DHT22;333;48.800;9.530;2023-04-15T06:39:52;5.40;99.60
2260;DHT22;333;48.800;9.530;2023-04-15T06:42:23;5.50;99.60
2260;DHT22;333;48.800;9.530;2023-04-15T06:44:50;5.50;99.60
2260;DHT22;333;48.800;9.530;2023-04-15T06:47:17;5.70;99.60
2260;DHT22;333;48.800;9.530;2023-04-15T06:49:44;5.80;99.60
2260;DHT22;333;48.800;9.530;2023-04-15T06:52:12;6.00;99.60
2260;DHT22;333;48.800;9.530;2023-04-15T06:54:41;6.10;99.60
2260;DHT22;333;48.800;9.530;2023-04-15T06:57:08;6.50;99.60
2260;DHT22;333;48.800;9.530;2023-04-15T06:59:35;6.70;99.60
2260;DHT22;333;48.800;9.530;2023-04-15T07:02:07;6.80;99.60
2260;DHT22;333;48.800;9.530;2023-04-15T07:04:35;6.80;99.60
2260;DHT22;333;48.800;9.530;2023-04-15T07:07:02;6.90;99.60
2260;DHT22;333;48.800;9.530;2023-04-15T07:09:31;7.00;99.60
2260;DHT22;333;48.800;9.530;2023-04-15T07:11:59;7.10;99.60
2260;DHT22;333;48.800;9.530;2023-04-15T07:14:26;7.20;99.60
2260;DHT22;333;48.800;9.530;2023-04-15T07:16:54;7.20;99.60
2260;DHT22;333;48.800;9.530;2023-04-15T07:19:21;7.60;99.60
2260;DHT22;333;48.800;9.530;2023-04-15T07:21:48;8.00;99.60
2260;DHT22;333;48.800;9.530;2023-04-15T07:24:15;7.80;99.60
2260;DHT22;333;48.800;9.530;2023-04-15T07:26:45;8.00;99.60
2260;DHT22;333;48.800;9.530;2023-04-15T07:29:12;7.80;99.60
2260;DHT22;333;48.800;9.530;2023-04-15T07:31:39;7.80;99.60
2260;DHT22;333;48.800;9.530;2023-04-15T07:34:07;7.80;99.60
2260;DHT22;333;48.800;9.530;2023-04-15T07:36:34;7.70;99.60
2260;DHT22;333;48.800;9.530;2023-04-15T07:39:01;7.80;99.60
2260;DHT22;333;48.800;9.530;2023-04-15T07:41:29;8.10;99.60
2260;DHT22;333;48.800;9.530;2023-04-15T07:43:57;8.10;99.60
2260;DHT22;333;48.800;9.530;2023-04-15T07:46:25;8.30;99.60
2260;DHT22;333;48.800;9.530;2023-04-15T07:48:53;8.40;99.60
2260;DHT22;333;48.800;9.530;2023-04-15T07:51:21;8.40;99.60
2260;DHT22;333;48.800;9.530;2023-04-15T07:53:49;8.60;99.60
2260;DHT22;333;48.800;9.530;2023-04-15T07:56:16;8.80;99.60
2260;DHT22;333;48.800;9.530;2023-04-15T07:58:43;9.10;99.60
2260;DHT22;333;48.800;9.530;2023-04-15T08:01:11;9.50;99.60
2260;DHT22;333;48.800;9.530;2023-04-15T08:03:38;9.80;99.60
2260;DHT22;333;48.800;9.530;2023-04-15T08:06:05;10.00;99.60
2260;DHT22;333;48.800;9.530;2023-04-15T08:08:32;10.20;99.60
2260;DHT22;333;48.800;9.530;2023-04-15T08:11:00;10.10;99.60
2260;DHT22;333;48.800;9.530;2023-04-15T08:13:27;10.20;99.60
2260;DHT22;333;48.800;9.530;2023-04-15T08:16:15;10.30;99.60
2260;DHT22;333;48.800;9.530;2023-04-15T08:18:43;10.40;99.60
2260;DHT22;333;48.800;9.530;2023-04-15T08:21:10;10.50;99.60
2260;DHT22;333;48.800;9.530;2023-04-15T08:23:37;10.50;99.60
2260;DHT22;333;48.800;9.530;2023-04-15T08:26:04;10.70;99.60
2260;DHT22;333;48.800;9.530;2023-04-15T08:28:32;10.80;99.60
2260;DHT22;333;48.800;9.530;2023-04-15T08:30:59;11.00;99.60
2260;DHT22;333;48.800;9.530;2023-04-15T08:33:27;11.20;99.60
2260;DHT22;333;48.800;9.530;2023-04-15T08:35:54;11.50;99.60
2260;DHT22;333;48.800;9.530;2023-04-15T08:38:22;11.60;98.50
2260;DHT22;333;48.800;9.530;2023-04-15T08:40:49;11.50;98.30
2260;DHT22;333;48.800;9.530;2023-04-15T08:43:20;11.60;98.20
2260;DHT22;333;48.800;9.530;2023-04-15T08:45:49;11.80;99.30
2260;DHT22;333;48.800;9.530;2023-04-15T08:48:17;11.90;98.90
2260;DHT22;333;48.800;9.530;2023-04-15T08:50:47;12.10;98.40
2260;DHT22;333;48.800;9.530;2023-04-15T08:53:14;12.00;97.50
2260;DHT22;333;48.800;9.530;2023-04-15T08:55:43;12.30;98.00
2260;DHT22;333;48.800;9.530;2023-04-15T08:58:11;12.70;97.70
2260;DHT22;333;48.800;9.530;2023-04-15T09:00:38;13.10;97.10
2260;DHT22;333;48.800;9.530;2023-04-15T09:03:06;13.50;95.70
2260;DHT22;333;48.800;9.530;2023-04-15T09:05:34;13.30;94.60
2260;DHT22;333;48.800;9.530;2023-04-15T09:08:04;13.50;94.70
2260;DHT22;333;48.800;9.530;2023-04-15T09:10:32;13.90;93.40
2260;DHT22;333;48.800;9.530;2023-04-15T09:12:59;13.70;93.80
2260;DHT22;333;48.800;9.530;2023-04-15T09:15:27;13.70;94.40
2260;DHT22;333;48.800;9.530;2023-04-15T09:17:55;13.60;94.30
2260;DHT22;333;48.800;9.530;2023-04-15T09:20:23;13.60;94.10
2260;DHT22;333;48.800;9.530;2023-04-15T09:22:51;13.70;92.90
2260;DHT22;333;48.800;9.530;2023-04-15T09:25:27;13.50;94.40
2260;DHT22;333;48.800;9.530;2023-04-15T09:27:55;13.60;94.40
2260;DHT22;333;48.800;9.530;2023-04-15T09:30:22;13.60;94.70
2260;DHT22;333;48.800;9.530;2023-04-15T09:32:50;14.10;94.20
2260;DHT22;333;48.800;9.530;2023-04-15T09:35:19;14.60;93.40
2260;DHT22;333;48.800;9.530;2023-04-15T09:37:47;14.50;92.40
2260;DHT22;333;48.800;9.530;2023-04-15T09:40:14;14.50;90.40
2260;DHT22;333;48.800;9.530;2023-04-15T09:42:57;14.30;90.10
2260;DHT22;333;48.800;9.530;2023-04-15T09:45:25;14.10;90.30
2260;DHT22;333;48.800;9.530;2023-04-15T09:47:52;13.90;89.50
2260;DHT22;333;48.800;9.530;2023-04-15T09:50:19;14.20;90.20
2260;DHT22;333;48.800;9.530;2023-04-15T09:52:47;14.80;87.80
2260;DHT22;333;48.800;9.530;2023-04-15T09:55:14;14.80;87.40
2260;DHT22;333;48.800;9.530;2023-04-15T09:57:41;14.60;88.30
2260;DHT22;333;48.800;9.530;2023-04-15T10:00:11;14.20;89.40
2260;DHT22;333;48.800;9.530;2023-04-15T10:02:39;14.80;88.20
2260;DHT22;333;48.800;9.530;2023-04-15T10:05:08;15.00;88.20
2260;DHT22;333;48.800;9.530;2023-04-15T10:07:37;14.70;88.70
2260;DHT22;333;48.800;9.530;2023-04-15T10:10:06;14.80;87.80
2260;DHT22;333;48.800;9.530;2023-04-15T10:12:36;14.60;88.70
2260;DHT22;333;48.800;9.530;2023-04-15T10:15:04;14.30;89.30
2260;DHT22;333;48.800;9.530;2023-04-15T10:17:35;13.80;92.10
2260;DHT22;333;48.800;9.530;2023-04-15T10:20:03;13.80;92.20
2260;DHT22;333;48.800;9.530;2023-04-15T10:22:31;14.40;90.70
2260;DHT22;333;48.800;9.530;2023-04-15T10:24:58;14.30;90.50
2260;DHT22;333;48.800;9.530;2023-04-15T10:27:26;14.60;90.10
2260;DHT22;333;48.800;9.530;2023-04-15T10:29:53;14.60;89.30
2260;DHT22;333;48.800;9.530;2023-04-15T10:32:23;14.60;89.20
2260;DHT22;333;48.800;9.530;2023-04-15T10:34:53;14.40;89.50
2260;DHT22;333;48.800;9.530;2023-04-15T10:37:32;14.70;89.90
2260;DHT22;333;48.800;9.530;2023-04-15T10:39:59;14.80;89.30
2260;DHT22;333;48.800;9.530;2023-04-15T10:42:33;14.70;90.30
2260;DHT22;333;48.800;9.530;2023-04-15T10:45:00;14.60;89.50
2260;DHT22;333;48.800;9.530;2023-04-15T10:47:28;14.30;90.10
2260;DHT22;333;48.800;9.530;2023-04-15T10:50:01;14.60;89.00
2260;DHT22;333;48.800;9.530;2023-04-15T10:52:28;14.60;88.60
2260;DHT22;333;48.800;9.530;2023-04-15T10:55:02;14.20;89.80
2260;DHT22;333;48.800;9.530;2023-04-15T10:57:33;14.50;88.20
2260;DHT22;333;48.800;9.530;2023-04-15T11:00:08;14.40;87.40
2260;DHT22;333;48.800;9.530;2023-04-15T11:02:40;14.10;86.90
2260;DHT22;333;48.800;9.530;2023-04-15T11:05:11;13.90;88.00
2260;DHT22;333;48.800;9.530;2023-04-15T11:07:41;13.80;88.00
2260;DHT22;333;48.800;9.530;2023-04-15T11:13:26;14.00;87.00
2260;DHT22;333;48.800;9.530;2023-04-15T11:16:01;14.00;87.40
2260;DHT22;333;48.800;9.530;2023-04-15T11:18:29;13.90;87.50
2260;DHT22;333;48.800;9.530;2023-04-15T11:21:03;13.80;89.00
2260;DHT22;333;48.800;9.530;2023-04-15T11:23:32;14.30;88.00
2260;DHT22;333;48.800;9.530;2023-04-15T11:26:01;14.30;84.40
2260;DHT22;333;48.800;9.530;2023-04-15T11:28:31;14.40;83.90
2260;DHT22;333;48.800;9.530;2023-04-15T11:31:02;14.50;84.20
2260;DHT22;333;48.800;9.530;2023-04-15T11:33:35;14.10;85.20
2260;DHT22;333;48.800;9.530;2023-04-15T11:36:03;14.00;86.80
2260;DHT22;333;48.800;9.530;2023-04-15T11:38:31;13.80;87.60
2260;DHT22;333;48.800;9.530;2023-04-15T11:40:59;13.80;87.30
2260;DHT22;333;48.800;9.530;2023-04-15T11:43:26;13.80;88.00
2260;DHT22;333;48.800;9.530;2023-04-15T11:45:55;14.10;88.90
2260;DHT22;333;48.800;9.530;2023-04-15T11:48:24;14.30;87.80
2260;DHT22;333;48.800;9.530;2023-04-15T11:50:56;14.30;89.00
2260;DHT22;333;48.800;9.530;2023-04-15T11:53:35;14.00;88.10
2260;DHT22;333;48.800;9.530;2023-04-15T11:56:03;13.90;88.40
2260;DHT22;333;48.800;9.530;2023-04-15T11:58:30;14.00;88.70
2260;DHT22;333;48.800;9.530;2023-04-15T12:00:58;14.30;88.60
2260;DHT22;333;48.800;9.530;2023-04-15T12:03:27;14.10;88.30
2260;DHT22;333;48.800;9.530;2023-04-15T12:06:11;13.70;89.00
2260;DHT22;333;48.800;9.530;2023-04-15T12:08:51;13.70;89.80
2260;DHT22;333;48.800;9.530;2023-04-15T12:11:19;14.00;89.40
2260;DHT22;333;48.800;9.530;2023-04-15T12:13:47;14.10;88.50
2260;DHT22;333;48.800;9.530;2023-04-15T12:16:16;13.80;88.00
2260;DHT22;333;48.800;9.530;2023-04-15T12:18:44;13.70;88.10
2260;DHT22;333;48.800;9.530;2023-04-15T12:21:12;13.70;88.20
2260;DHT22;333;48.800;9.530;2023-04-15T12:23:46;13.60;90.30
2260;DHT22;333;48.800;9.530;2023-04-15T12:26:15;13.50;91.30
2260;DHT22;333;48.800;9.530;2023-04-15T12:28:43;13.30;92.00
2260;DHT22;333;48.800;9.530;2023-04-15T12:31:11;13.40;86.50
2260;DHT22;333;48.800;9.530;2023-04-15T12:33:39;13.30;86.60
2260;DHT22;333;48.800;9.530;2023-04-15T12:36:07;13.30;85.50
2260;DHT22;333;48.800;9.530;2023-04-15T12:38:34;13.50;85.40
2260;DHT22;333;48.800;9.530;2023-04-15T12:41:01;13.40;84.00
2260;DHT22;333;48.800;9.530;2023-04-15T12:43:29;13.10;86.30
2260;DHT22;333;48.800;9.530;2023-04-15T12:45:56;12.90;86.80
2260;DHT22;333;48.800;9.530;2023-04-15T12:48:23;13.00;86.80
2260;DHT22;333;48.800;9.530;2023-04-15T12:50:50;12.60;88.10
2260;DHT22;333;48.800;9.530;2023-04-15T12:53:17;12.50;90.20
2260;DHT22;333;48.800;9.530;2023-04-15T12:55:44;12.40;90.00
2260;DHT22;333;48.800;9.530;2023-04-15T12:58:12;12.10;90.40
2260;DHT22;333;48.800;9.530;2023-04-15T13:00:40;12.00;88.50
2260;DHT22;333;48.800;9.530;2023-04-15T13:03:07;12.10;87.80
2260;DHT22;333;48.800;9.530;2023-04-15T13:05:37;12.30;88.10
2260;DHT22;333;48.800;9.530;2023-04-15T13:08:08;12.40;84.50
2260;DHT22;333;48.800;9.530;2023-04-15T13:10:35;12.50;84.80
2260;DHT22;333;48.800;9.530;2023-04-15T13:13:03;12.50;81.40
2260;DHT22;333;48.800;9.530;2023-04-15T13:15:30;12.40;80.70
2260;DHT22;333;48.800;9.530;2023-04-15T13:18:00;12.40;89.60
2260;DHT22;333;48.800;9.530;2023-04-15T13:20:30;12.30;93.90
2260;DHT22;333;48.800;9.530;2023-04-15T13:22:57;12.20;94.20
2260;DHT22;333;48.800;9.530;2023-04-15T13:25:24;12.10;92.50
2260;DHT22;333;48.800;9.530;2023-04-15T13:27:51;12.20;90.50
2260;DHT22;333;48.800;9.530;2023-04-15T13:30:18;12.20;90.90
2260;DHT22;333;48.800;9.530;2023-04-15T13:32:46;12.30;87.80
2260;DHT22;333;48.800;9.530;2023-04-15T13:35:14;12.30;89.80
2260;DHT22;333;48.800;9.530;2023-04-15T13:37:42;12.50;87.10
2260;DHT22;333;48.800;9.530;2023-04-15T13:40:09;12.40;84.30
2260;DHT22;333;48.800;9.530;2023-04-15T13:42:40;12.40;82.00
2260;DHT22;333;48.800;9.530;2023-04-15T13:45:08;12.30;82.00
2260;DHT22;333;48.800;9.530;2023-04-15T13:47:38;12.40;82.40
2260;DHT22;333;48.800;9.530;2023-04-15T13:50:06;12.20;81.70
2260;DHT22;333;48.800;9.530;2023-04-15T13:52:34;12.20;81.50
2260;DHT22;333;48.800;9.530;2023-04-15T13:55:02;12.20;82.30
2260;DHT22;333;48.800;9.530;2023-04-15T13:57:29;12.00;82.10
2260;DHT22;333;48.800;9.530;2023-04-15T13:59:57;12.20;83.10
2260;DHT22;333;48.800;9.530;2023-04-15T14:02:24;12.30;83.30
2260;DHT22;333;48.800;9.530;2023-04-15T14:04:51;12.40;82.90
2260;DHT22;333;48.800;9.530;2023-04-15T14:07:18;12.50;82.60
2260;DHT22;333;48.800;9.530;2023-04-15T14:09:47;12.60;82.40
2260;DHT22;333;48.800;9.530;2023-04-15T14:12:14;12.70;83.00
2260;DHT22;333;48.800;9.530;2023-04-15T14:14:41;12.70;81.70
2260;DHT22;333;48.800;9.530;2023-04-15T14:17:08;12.60;81.90
2260;DHT22;333;48.800;9.530;2023-04-15T14:19:43;12.60;81.70
2260;DHT22;333;48.800;9.530;2023-04-15T14:22:12;12.70;81.70
2260;DHT22;333;48.800;9.530;2023-04-15T14:24:39;12.60;81.80
2260;DHT22;333;48.800;9.530;2023-04-15T14:27:08;12.70;81.70
2260;DHT22;333;48.800;9.530;2023-04-15T14:29:37;12.50;80.90
2260;DHT22;333;48.800;9.530;2023-04-15T14:32:04;12.30;82.20
2260;DHT22;333;48.800;9.530;2023-04-15T14:34:32;12.20;82.50
2260;DHT22;333;48.800;9.530;2023-04-15T14:36:59;12.20;83.90
2260;DHT22;333;48.800;9.530;2023-04-15T14:39:26;12.20;84.60
2260;DHT22;333;48.800;9.530;2023-04-15T14:41:53;12.00;86.00
2260;DHT22;333;48.800;9.530;2023-04-15T14:44:24;11.90;86.90
2260;DHT22;333;48.800;9.530;2023-04-15T14:46:53;11.90;87.90
2260;DHT22;333;48.800;9.530;2023-04-15T14:49:21;12.00;87.70
2260;DHT22;333;48.800;9.530;2023-04-15T14:51:48;11.80;88.20
2260;DHT22;333;48.800;9.530;2023-04-15T14:54:18;11.90;88.70
2260;DHT22;333;48.800;9.530;2023-04-15T14:56:46;11.90;88.70
2260;DHT22;333;48.800;9.530;2023-04-15T14:59:13;11.80;89.60
2260;DHT22;333;48.800;9.530;2023-04-15T15:01:43;11.80;89.70
2260;DHT22;333;48.800;9.530;2023-04-15T15:04:14;11.90;90.00
2260;DHT22;333;48.800;9.530;2023-04-15T15:06:42;12.00;90.00
2260;DHT22;333;48.800;9.530;2023-04-15T15:09:09;12.00;90.30
2260;DHT22;333;48.800;9.530;2023-04-15T15:11:36;12.00;90.40
2260;DHT22;333;48.800;9.530;2023-04-15T15:14:03;12.00;90.80
2260;DHT22;333;48.800;9.530;2023-04-15T15:16:33;12.00;91.00
2260;DHT22;333;48.800;9.530;2023-04-15T15:19:02;12.00;91.00
2260;DHT22;333;48.800;9.530;2023-04-15T15:21:29;11.90;91.60
2260;DHT22;333;48.800;9.530;2023-04-15T15:23:56;11.80;92.10
2260;DHT22;333;48.800;9.530;2023-04-15T15:26:25;11.70;92.60
2260;DHT22;333;48.800;9.530;2023-04-15T15:28:52;11.60;93.00
2260;DHT22;333;48.800;9.530;2023-04-15T15:31:19;11.70;93.00
2260;DHT22;333;48.800;9.530;2023-04-15T15:33:48;11.70;93.10
2260;DHT22;333;48.800;9.530;2023-04-15T15:36:17;11.70;93.30
2260;DHT22;333;48.800;9.530;2023-04-15T15:38:44;11.60;93.70
2260;DHT22;333;48.800;9.530;2023-04-15T15:41:11;11.50;93.60
2260;DHT22;333;48.800;9.530;2023-04-15T15:43:40;11.50;94.00
2260;DHT22;333;48.800;9.530;2023-04-15T15:46:08;11.40;94.60
2260;DHT22;333;48.800;9.530;2023-04-15T15:48:35;11.50;94.70
2260;DHT22;333;48.800;9.530;2023-04-15T15:51:03;11.50;94.00
2260;DHT22;333;48.800;9.530;2023-04-15T15:53:31;11.50;94.40
2260;DHT22;333;48.800;9.530;2023-04-15T15:55:58;11.40;95.50
2260;DHT22;333;48.800;9.530;2023-04-15T15:58:25;11.30;96.30
2260;DHT22;333;48.800;9.530;2023-04-15T16:00:52;11.20;97.30
2260;DHT22;333;48.800;9.530;2023-04-15T16:03:19;11.20;99.60
2260;DHT22;333;48.800;9.530;2023-04-15T16:05:46;11.10;99.60
2260;DHT22;333;48.800;9.530;2023-04-15T16:08:16;10.90;99.60
2260;DHT22;333;48.800;9.530;2023-04-15T16:10:44;10.70;99.60
2260;DHT22;333;48.800;9.530;2023-04-15T16:13:11;10.70;99.60
2260;DHT22;333;48.800;9.530;2023-04-15T16:15:39;10.60;99.60
2260;DHT22;333;48.800;9.530;2023-04-15T16:18:06;10.50;99.60
2260;DHT22;333;48.800;9.530;2023-04-15T16:20:33;10.20;99.60
2260;DHT22;333;48.800;9.530;2023-04-15T16:23:05;9.80;99.60
2260;DHT22;333;48.800;9.530;2023-04-15T16:25:34;9.60;99.60
2260;DHT22;333;48.800;9.530;2023-04-15T16:28:02;9.50;99.60
2260;DHT22;333;48.800;9.530;2023-04-15T16:30:29;9.30;99.60
2260;DHT22;333;48.800;9.530;2023-04-15T16:32:56;9.10;99.60
2260;DHT22;333;48.800;9.530;2023-04-15T16:35:23;9.00;99.60